createdAt,value
2019-03-28T00:14:02.082Z,8.3
2019-03-28T00:29:19.816Z,8.4
2019-03-28T00:44:33.308Z,8.4
2019-03-28T00:59:46.818Z,8.4
2019-03-28T01:14:49.990Z,8.4
2019-03-28T01:30:13.768Z,8.3
2019-03-28T01:45:27.206Z,8.2
2019-03-28T02:00:40.583Z,7.9
2019-03-28T02:15:53.890Z,7.8
2019-03-28T02:31:04.672Z,7.7
2019-03-28T02:46:20.267Z,7.6
2019-03-28T03:01:33.473Z,7.6
2019-03-28T03:16:46.638Z,7.5
2019-03-28T03:31:53.523Z,7.5
2019-03-28T03:47:12.916Z,7.4
2019-03-28T04:02:26.067Z,7.5
2019-03-28T04:17:39.459Z,7.5
2019-03-28T04:32:52.416Z,7.5
2019-03-28T04:48:05.708Z,7.5
2019-03-28T05:03:18.860Z,7.5
2019-03-28T05:18:32.255Z,7.5
2019-03-28T05:33:45.117Z,7.5
2019-03-28T05:48:52.748Z,7.6
2019-03-28T06:04:11.523Z,7.8
2019-03-28T06:19:24.879Z,7.8
2019-03-28T06:34:38.203Z,8
2019-03-28T06:49:40.285Z,8
2019-03-28T07:05:04.980Z,8.1
2019-03-28T07:20:18.436Z,8.2
2019-03-28T07:35:31.854Z,8.3
2019-03-28T07:50:45.335Z,8.4
2019-03-28T08:05:55.450Z,8.5
2019-03-28T08:21:12.450Z,8.5
2019-03-28T08:36:25.939Z,8.5
2019-03-28T08:51:39.552Z,8.7
2019-03-28T09:06:43.926Z,8.7
2019-03-28T09:22:06.777Z,8.6
2019-03-28T09:37:20.394Z,8.8
2019-03-28T09:52:34.047Z,8.8
2019-03-28T10:07:47.685Z,8.7
2019-03-28T10:23:00.074Z,8.8
2019-03-28T10:38:15.128Z,8.9
2019-03-28T10:53:30.156Z,9
2019-03-28T11:08:42.734Z,9.1
2019-03-28T11:23:49.086Z,9.2
2019-03-28T11:39:10.097Z,9.2
2019-03-28T11:54:23.910Z,9.2
2019-03-28T12:09:38.069Z,9.2
2019-03-28T12:24:51.573Z,9.3
2019-03-28T12:40:05.380Z,9.3
2019-03-28T12:55:19.458Z,9.4
2019-03-28T13:10:33.131Z,9.4
2019-03-28T13:25:47.025Z,9.6
2019-03-28T13:40:55.934Z,9.6
2019-03-28T13:56:14.926Z,9.7
2019-03-28T14:11:28.927Z,9.6
2019-03-28T14:26:42.909Z,9.8
2019-03-28T14:41:46.428Z,9.8
2019-03-28T14:57:10.972Z,9.8
2019-03-28T15:12:25.025Z,9.8
2019-03-28T15:27:39.586Z,9.7
2019-03-28T15:42:54.268Z,9.7
2019-03-28T15:58:04.055Z,9.6
2019-03-28T16:13:22.709Z,9.5
2019-03-28T16:28:34.813Z,9.5
2019-03-28T16:43:48.690Z,9.6
2019-03-28T16:58:55.490Z,9.7
2019-03-28T17:14:16.667Z,9.7
2019-03-28T17:29:30.503Z,9.7
2019-03-28T17:44:44.426Z,9.7
2019-03-28T17:59:58.413Z,9.5
2019-03-28T18:15:11.945Z,9.5
2019-03-28T18:30:27.068Z,9.3
2019-03-28T18:45:39.943Z,9.3
2019-03-28T19:00:53.777Z,9.3
2019-03-28T19:16:02.024Z,9.3
2019-03-28T19:31:21.449Z,9.3
2019-03-28T19:46:35.253Z,9.3
2019-03-28T20:01:49.079Z,9.3
2019-03-28T20:16:51.866Z,9.4
2019-03-28T20:32:16.729Z,9.4
2019-03-28T20:47:30.616Z,9.5
2019-03-28T21:02:44.479Z,9.5
2019-03-28T21:17:58.761Z,9.6
2019-03-28T21:33:08.993Z,9.5
2019-03-28T21:48:26.167Z,9.4
2019-03-28T22:03:40.198Z,9.5
2019-03-28T22:18:53.929Z,9.5
2019-03-28T22:33:58.817Z,9.7
2019-03-28T22:49:21.846Z,9.7
2019-03-28T23:04:35.752Z,9.6
2019-03-28T23:19:49.678Z,9.5
2019-03-28T23:35:03.579Z,9.5
2019-03-28T23:50:16.282Z,9.5
